createdAt,value
2022-09-26T00:01:24.008Z,100.00
2022-09-26T00:03:53.892Z,100.00
2022-09-26T00:06:21.930Z,100.00
2022-09-26T00:08:50.040Z,100.00
2022-09-26T00:11:25.519Z,100.00
2022-09-26T00:13:54.178Z,100.00
2022-09-26T00:16:21.331Z,100.00
2022-09-26T00:18:52.776Z,100.00
2022-09-26T00:21:20.299Z,100.00
2022-09-26T00:23:47.068Z,100.00
2022-09-26T00:26:14.895Z,100.00
2022-09-26T00:28:41.679Z,100.00
2022-09-26T00:31:10.995Z,100.00
2022-09-26T00:33:37.890Z,100.00
2022-09-26T00:36:05.439Z,100.00
2022-09-26T00:38:32.028Z,100.00
2022-09-26T00:40:58.873Z,100.00
2022-09-26T00:43:29.677Z,100.00
2022-09-26T00:46:00.430Z,100.00
2022-09-26T00:48:27.713Z,100.00
2022-09-26T00:50:54.547Z,100.00
2022-09-26T00:53:27.154Z,100.00
2022-09-26T00:55:56.918Z,100.00
2022-09-26T00:58:34.030Z,100.00
2022-09-26T01:01:00.953Z,100.00
2022-09-26T01:03:29.209Z,100.00
2022-09-26T01:05:56.259Z,100.00
2022-09-26T01:08:28.275Z,100.00
2022-09-26T01:10:55.499Z,100.00
2022-09-26T01:13:22.177Z,100.00
2022-09-26T01:15:49.365Z,100.00
2022-09-26T01:18:15.977Z,100.00
2022-09-26T01:20:57.280Z,100.00
2022-09-26T01:23:46.908Z,100.00
2022-09-26T01:26:25.719Z,100.00
2022-09-26T01:29:02.193Z,100.00
2022-09-26T01:31:35.562Z,100.00
2022-09-26T01:34:12.671Z,100.00
2022-09-26T01:37:01.675Z,100.00
2022-09-26T01:39:51.790Z,100.00
2022-09-26T01:42:27.947Z,100.00
2022-09-26T01:45:05.896Z,100.00
2022-09-26T01:48:18.779Z,100.00
2022-09-26T01:50:47.328Z,100.00
2022-09-26T01:53:27.143Z,100.00
2022-09-26T01:56:02.164Z,100.00
2022-09-26T01:58:33.594Z,100.00
2022-09-26T02:01:04.858Z,100.00
2022-09-26T02:03:37.100Z,100.00
2022-09-26T02:06:17.083Z,100.00
2022-09-26T02:08:49.014Z,100.00
2022-09-26T02:11:17.244Z,100.00
2022-09-26T02:14:11.868Z,100.00
2022-09-26T02:16:48.014Z,100.00
2022-09-26T02:19:26.486Z,100.00
2022-09-26T02:21:53.340Z,100.00
2022-09-26T02:24:20.106Z,100.00
2022-09-26T02:26:46.714Z,100.00
2022-09-26T02:29:13.966Z,100.00
2022-09-26T02:31:52.047Z,100.00
2022-09-26T02:34:18.675Z,100.00
2022-09-26T02:36:46.467Z,100.00
2022-09-26T02:39:13.653Z,100.00
2022-09-26T02:41:55.379Z,100.00
2022-09-26T02:44:42.193Z,100.00
2022-09-26T02:47:27.618Z,100.00
2022-09-26T02:50:08.887Z,100.00
2022-09-26T02:52:51.558Z,100.00
2022-09-26T02:55:27.788Z,100.00
2022-09-26T02:58:16.688Z,100.00
2022-09-26T03:01:22.511Z,100.00
2022-09-26T03:03:53.003Z,100.00
2022-09-26T03:06:24.562Z,100.00
2022-09-26T03:08:51.576Z,100.00
2022-09-26T03:11:21.972Z,100.00
2022-09-26T03:13:50.982Z,100.00
2022-09-26T03:16:18.127Z,100.00
2022-09-26T03:19:26.861Z,100.00
2022-09-26T03:21:54.298Z,100.00
2022-09-26T03:24:20.997Z,100.00
2022-09-26T03:26:47.968Z,100.00
2022-09-26T03:29:15.111Z,100.00
2022-09-26T03:31:41.818Z,100.00
2022-09-26T03:34:08.491Z,100.00
2022-09-26T03:36:35.117Z,100.00
2022-09-26T03:39:01.871Z,100.00
2022-09-26T03:41:28.485Z,100.00
2022-09-26T03:43:56.812Z,100.00
2022-09-26T03:46:24.369Z,100.00
2022-09-26T03:48:51.070Z,100.00
2022-09-26T03:51:18.023Z,100.00
2022-09-26T03:53:47.269Z,100.00
2022-09-26T03:56:15.994Z,100.00
2022-09-26T03:58:42.833Z,100.00
2022-09-26T04:01:12.579Z,100.00
2022-09-26T04:03:40.732Z,100.00
2022-09-26T04:06:09.274Z,100.00
2022-09-26T04:08:40.646Z,100.00
2022-09-26T04:11:09.269Z,100.00
2022-09-26T04:13:51.252Z,100.00
2022-09-26T04:16:20.181Z,100.00
2022-09-26T04:18:47.109Z,100.00
2022-09-26T04:21:14.225Z,100.00
2022-09-26T04:23:42.171Z,100.00
2022-09-26T04:26:10.789Z,100.00
2022-09-26T04:28:38.299Z,100.00
2022-09-26T04:31:06.577Z,100.00
2022-09-26T04:33:33.700Z,100.00
2022-09-26T04:36:02.546Z,100.00
2022-09-26T04:38:32.549Z,100.00
2022-09-26T04:41:11.176Z,100.00
2022-09-26T04:43:38.561Z,100.00
2022-09-26T04:46:10.083Z,100.00
2022-09-26T04:48:36.799Z,100.00
2022-09-26T04:51:07.575Z,100.00
2022-09-26T04:53:35.086Z,100.00
2022-09-26T04:56:01.959Z,100.00
2022-09-26T04:58:29.568Z,100.00
2022-09-26T05:00:56.453Z,100.00
2022-09-26T05:03:23.195Z,100.00
2022-09-26T05:05:50.457Z,100.00
2022-09-26T05:08:17.332Z,100.00
2022-09-26T05:10:44.183Z,100.00
2022-09-26T05:13:10.890Z,100.00
2022-09-26T05:15:39.923Z,100.00
2022-09-26T05:18:07.855Z,100.00
2022-09-26T05:20:35.427Z,100.00
2022-09-26T05:23:02.232Z,100.00
2022-09-26T05:25:49.990Z,100.00
2022-09-26T05:28:16.624Z,100.00
2022-09-26T05:30:43.521Z,100.00
2022-09-26T05:33:13.072Z,100.00
2022-09-26T05:35:40.509Z,100.00
2022-09-26T05:38:07.157Z,100.00
2022-09-26T05:40:52.462Z,100.00
2022-09-26T05:43:19.033Z,100.00
2022-09-26T05:45:49.296Z,100.00
2022-09-26T05:48:18.937Z,100.00
2022-09-26T05:50:45.550Z,100.00
2022-09-26T05:53:12.278Z,100.00
2022-09-26T05:55:38.906Z,100.00
2022-09-26T05:58:10.027Z,100.00
2022-09-26T06:00:38.658Z,100.00
2022-09-26T06:03:05.382Z,100.00
2022-09-26T06:05:33.660Z,100.00
2022-09-26T06:08:01.791Z,100.00
2022-09-26T06:10:28.510Z,100.00
2022-09-26T06:12:55.426Z,100.00
2022-09-26T06:15:23.078Z,100.00
2022-09-26T06:17:57.506Z,100.00
2022-09-26T06:20:25.165Z,100.00
2022-09-26T06:22:52.722Z,100.00
2022-09-26T06:25:19.320Z,100.00
2022-09-26T06:27:45.942Z,100.00
2022-09-26T06:30:12.637Z,100.00
2022-09-26T06:32:39.353Z,100.00
2022-09-26T06:35:06.922Z,100.00
2022-09-26T06:37:34.044Z,100.00
2022-09-26T06:40:00.910Z,100.00
2022-09-26T06:42:27.505Z,100.00
2022-09-26T06:44:54.092Z,100.00
2022-09-26T06:47:20.686Z,100.00
2022-09-26T06:49:49.135Z,100.00
2022-09-26T06:52:15.786Z,100.00
2022-09-26T06:54:42.394Z,100.00
2022-09-26T06:57:14.716Z,100.00
2022-09-26T06:59:41.787Z,100.00
2022-09-26T07:02:09.179Z,100.00
2022-09-26T07:04:35.979Z,100.00
2022-09-26T07:07:02.650Z,100.00
2022-09-26T07:09:29.259Z,100.00
2022-09-26T07:12:13.988Z,100.00
2022-09-26T07:14:42.371Z,100.00
2022-09-26T07:17:14.464Z,100.00
2022-09-26T07:19:41.748Z,100.00
2022-09-26T07:22:09.466Z,100.00
2022-09-26T07:24:36.057Z,100.00
2022-09-26T07:27:03.116Z,100.00
2022-09-26T07:29:29.704Z,100.00
2022-09-26T07:31:56.565Z,100.00
2022-09-26T07:34:25.038Z,100.00
2022-09-26T07:36:52.008Z,100.00
2022-09-26T07:39:18.903Z,100.00
2022-09-26T07:41:46.062Z,100.00
2022-09-26T07:47:18.886Z,100.00
2022-09-26T07:50:04.300Z,100.00
2022-09-26T07:52:30.931Z,100.00
2022-09-26T07:54:57.579Z,100.00
2022-09-26T07:57:24.537Z,100.00
2022-09-26T07:59:51.926Z,100.00
2022-09-26T08:02:23.050Z,100.00
2022-09-26T08:04:49.842Z,100.00
2022-09-26T08:07:16.524Z,100.00
2022-09-26T08:09:43.157Z,100.00
2022-09-26T08:12:10.018Z,100.00
2022-09-26T08:14:37.531Z,100.00
2022-09-26T08:17:04.198Z,100.00
2022-09-26T08:19:30.848Z,100.00
2022-09-26T08:21:59.143Z,100.00
2022-09-26T08:24:25.748Z,100.00
2022-09-26T08:26:54.765Z,100.00
2022-09-26T08:29:23.535Z,100.00
2022-09-26T08:31:51.410Z,100.00
2022-09-26T08:34:21.401Z,100.00
2022-09-26T08:36:54.803Z,100.00
2022-09-26T08:39:21.988Z,100.00
2022-09-26T08:42:28.706Z,100.00
2022-09-26T08:45:26.533Z,100.00
2022-09-26T08:47:59.768Z,100.00
2022-09-26T08:50:39.390Z,100.00
2022-09-26T08:53:10.789Z,100.00
2022-09-26T08:55:42.565Z,96.97
2022-09-26T08:58:18.940Z,98.37
2022-09-26T09:00:51.389Z,92.50
2022-09-26T09:03:23.757Z,88.67
2022-09-26T09:05:54.698Z,83.82
2022-09-26T09:08:24.045Z,87.03
2022-09-26T09:11:12.341Z,85.99
2022-09-26T09:13:52.441Z,84.65
2022-09-26T09:16:37.853Z,80.19
2022-09-26T09:19:22.645Z,77.71
2022-09-26T09:21:59.140Z,78.96
2022-09-26T09:24:44.969Z,78.60
2022-09-26T09:28:04.040Z,76.63
2022-09-26T09:30:41.987Z,74.97
2022-09-26T09:33:17.291Z,78.68
2022-09-26T09:35:48.235Z,75.45
2022-09-26T09:38:18.266Z,70.49
2022-09-26T09:40:51.440Z,71.60
2022-09-26T09:43:36.809Z,73.06
2022-09-26T09:46:05.892Z,70.92
2022-09-26T09:48:33.192Z,70.56
2022-09-26T09:51:15.286Z,71.65
2022-09-26T09:54:23.713Z,71.84
2022-09-26T09:57:10.935Z,71.87
2022-09-26T09:59:56.242Z,68.55
2022-09-26T10:02:37.433Z,68.57
2022-09-26T10:05:24.073Z,64.71
2022-09-26T10:07:57.991Z,65.11
2022-09-26T10:11:02.125Z,66.49
2022-09-26T10:13:32.595Z,62.71
2022-09-26T10:16:01.985Z,64.72
2022-09-26T10:18:28.615Z,61.35
2022-09-26T10:21:00.227Z,61.12
2022-09-26T10:23:31.390Z,60.27
2022-09-26T10:26:03.703Z,60.49
2022-09-26T10:28:31.880Z,60.42
2022-09-26T10:31:04.228Z,59.97
2022-09-26T10:33:35.976Z,59.32
2022-09-26T10:36:19.759Z,58.00
2022-09-26T10:39:16.120Z,58.07
2022-09-26T10:41:45.127Z,58.82
2022-09-26T10:44:23.636Z,57.57
2022-09-26T10:46:52.578Z,58.73
2022-09-26T10:49:23.676Z,59.04
2022-09-26T10:51:57.750Z,59.10
2022-09-26T10:54:25.446Z,57.21
2022-09-26T10:56:59.478Z,58.87
2022-09-26T10:59:27.516Z,58.41
2022-09-26T11:01:58.918Z,58.50
2022-09-26T11:04:45.802Z,61.78
2022-09-26T11:07:24.810Z,64.03
2022-09-26T11:09:52.847Z,62.24
2022-09-26T11:12:29.126Z,62.52
2022-09-26T11:14:58.620Z,63.81
2022-09-26T11:17:51.460Z,64.51
2022-09-26T11:20:23.321Z,63.20
2022-09-26T11:22:56.802Z,62.07
2022-09-26T11:25:31.251Z,62.34
2022-09-26T11:28:07.148Z,59.46
2022-09-26T11:30:35.721Z,58.94
2022-09-26T11:33:05.578Z,56.81
2022-09-26T11:35:45.843Z,56.43
2022-09-26T11:38:40.457Z,57.89
2022-09-26T11:41:38.915Z,56.59
2022-09-26T11:44:34.634Z,58.28
2022-09-26T11:47:38.471Z,57.24
2022-09-26T11:50:35.547Z,57.93
2022-09-26T11:53:13.347Z,57.79
2022-09-26T11:56:15.809Z,57.55
2022-09-26T11:59:23.607Z,57.95
2022-09-26T12:02:18.284Z,60.65
2022-09-26T12:05:14.180Z,58.65
2022-09-26T12:07:56.235Z,62.45
2022-09-26T12:10:37.498Z,59.06
2022-09-26T12:13:49.329Z,59.80
2022-09-26T12:16:26.403Z,59.64
2022-09-26T12:19:21.594Z,58.08
2022-09-26T12:22:15.932Z,60.24
2022-09-26T12:25:10.963Z,60.77
2022-09-26T12:27:44.573Z,52.08
2022-09-26T12:30:14.518Z,55.11
2022-09-26T12:32:57.422Z,54.20
2022-09-26T12:35:43.187Z,57.19
2022-09-26T12:38:32.803Z,56.13
2022-09-26T12:41:25.955Z,57.35
2022-09-26T12:44:01.837Z,55.60
2022-09-26T12:46:55.957Z,57.40
2022-09-26T12:49:34.778Z,60.16
2022-09-26T12:52:27.123Z,59.91
2022-09-26T12:55:13.034Z,59.13
2022-09-26T12:58:18.810Z,59.91
2022-09-26T13:01:01.894Z,55.70
2022-09-26T13:03:56.578Z,58.90
2022-09-26T13:06:32.457Z,57.62
2022-09-26T13:09:12.134Z,59.31
2022-09-26T13:11:53.316Z,61.02
2022-09-26T13:14:45.278Z,59.54
2022-09-26T13:17:24.585Z,58.43
2022-09-26T13:19:59.521Z,58.92
2022-09-26T13:22:34.578Z,59.77
2022-09-26T13:25:18.923Z,59.82
2022-09-26T13:27:51.450Z,60.94
2022-09-26T13:30:53.640Z,61.68
2022-09-26T13:33:27.726Z,63.17
2022-09-26T13:35:55.826Z,64.23
2022-09-26T13:38:40.798Z,66.03
2022-09-26T13:42:01.350Z,65.74
2022-09-26T13:44:48.216Z,68.42
2022-09-26T13:47:27.311Z,67.19
2022-09-26T13:50:03.507Z,64.41
2022-09-26T13:52:52.571Z,65.81
2022-09-26T13:55:22.324Z,65.67
2022-09-26T13:58:00.857Z,67.49
2022-09-26T14:00:36.300Z,65.51
2022-09-26T14:03:18.642Z,63.73
2022-09-26T14:05:51.164Z,67.92
2022-09-26T14:08:49.377Z,65.72
2022-09-26T14:11:48.977Z,61.92
2022-09-26T14:14:19.150Z,63.24
2022-09-26T14:16:46.474Z,60.62
2022-09-26T14:19:20.634Z,60.97
2022-09-26T14:22:20.876Z,60.48
2022-09-26T14:24:48.753Z,58.57
2022-09-26T14:27:15.228Z,61.50
2022-09-26T14:29:42.463Z,62.88
2022-09-26T14:32:10.390Z,60.37
2022-09-26T14:34:54.662Z,60.14
2022-09-26T14:37:24.268Z,60.33
2022-09-26T14:40:17.193Z,61.79
2022-09-26T14:42:43.727Z,61.20
2022-09-26T14:45:19.445Z,62.36
2022-09-26T14:47:57.262Z,65.20
2022-09-26T14:50:32.195Z,64.36
2022-09-26T14:53:03.332Z,62.20
2022-09-26T14:55:30.223Z,64.22
2022-09-26T14:58:23.291Z,61.51
2022-09-26T15:00:50.531Z,64.83
2022-09-26T15:03:18.312Z,61.34
2022-09-26T15:05:45.482Z,62.51
2022-09-26T15:08:25.265Z,60.72
2022-09-26T15:10:53.405Z,59.97
2022-09-26T15:13:25.477Z,60.82
2022-09-26T15:16:01.370Z,63.09
2022-09-26T15:18:27.889Z,63.60
2022-09-26T15:21:28.241Z,62.62
2022-09-26T15:23:58.020Z,62.26
2022-09-26T15:26:31.448Z,61.53
2022-09-26T15:28:58.500Z,61.28
2022-09-26T15:31:40.607Z,61.61
2022-09-26T15:34:16.613Z,60.35
2022-09-26T15:36:45.291Z,64.07
2022-09-26T15:39:30.109Z,62.91
2022-09-26T15:42:28.012Z,64.57
2022-09-26T15:44:58.661Z,63.74
2022-09-26T15:47:31.806Z,64.34
2022-09-26T15:50:15.118Z,66.92
2022-09-26T15:52:49.073Z,66.05
2022-09-26T15:55:21.949Z,68.24
2022-09-26T15:57:50.023Z,65.97
2022-09-26T16:00:17.656Z,65.84
2022-09-26T16:02:44.317Z,69.38
2022-09-26T16:05:12.986Z,67.55
2022-09-26T16:07:41.435Z,70.30
2022-09-26T16:10:21.253Z,71.69
2022-09-26T16:12:47.868Z,74.05
2022-09-26T16:15:18.120Z,75.15
2022-09-26T16:17:53.261Z,75.87
2022-09-26T16:20:20.874Z,73.84
2022-09-26T16:23:00.369Z,73.33
2022-09-26T16:25:47.634Z,77.39
2022-09-26T16:28:15.499Z,77.70
2022-09-26T16:30:55.605Z,77.70
2022-09-26T16:33:32.868Z,78.43
2022-09-26T16:36:23.986Z,79.48
2022-09-26T16:38:55.945Z,78.32
2022-09-26T16:41:59.918Z,78.60
2022-09-26T16:44:35.462Z,77.88
2022-09-26T16:47:05.687Z,80.53
2022-09-26T16:49:48.517Z,79.59
2022-09-26T16:52:26.835Z,77.67
2022-09-26T16:54:58.819Z,78.55
2022-09-26T16:57:27.948Z,79.83
2022-09-26T17:00:18.430Z,83.73
2022-09-26T17:02:45.342Z,82.10
2022-09-26T17:05:18.448Z,83.79
2022-09-26T17:07:46.586Z,84.07
2022-09-26T17:10:13.198Z,83.47
2022-09-26T17:12:40.112Z,83.08
2022-09-26T17:15:08.239Z,83.74
2022-09-26T17:17:35.095Z,83.94
2022-09-26T17:20:05.106Z,85.27
2022-09-26T17:22:31.769Z,85.58
2022-09-26T17:25:01.515Z,85.87
2022-09-26T17:27:33.359Z,86.16
2022-09-26T17:30:04.973Z,86.38
2022-09-26T17:32:35.830Z,88.90
2022-09-26T17:35:08.309Z,88.47
2022-09-26T17:37:34.937Z,87.70
2022-09-26T17:40:01.825Z,86.61
2022-09-26T17:42:29.966Z,86.88
2022-09-26T17:44:56.553Z,88.46
2022-09-26T17:47:23.470Z,87.66
2022-09-26T17:49:56.314Z,87.77
2022-09-26T17:52:26.916Z,87.48
2022-09-26T17:54:57.426Z,88.76
2022-09-26T17:57:30.081Z,89.41
2022-09-26T17:59:57.757Z,88.70
2022-09-26T18:02:34.536Z,88.63
2022-09-26T18:05:04.719Z,88.39
2022-09-26T18:07:36.179Z,89.99
2022-09-26T18:10:17.012Z,91.42
2022-09-26T18:12:45.224Z,92.83
2022-09-26T18:15:16.119Z,92.78
2022-09-26T18:17:43.254Z,92.61
2022-09-26T18:20:09.843Z,91.60
2022-09-26T18:22:36.542Z,93.10
2022-09-26T18:25:05.897Z,90.51
2022-09-26T18:27:36.707Z,90.84
2022-09-26T18:30:04.566Z,91.12
2022-09-26T18:32:33.320Z,91.01
2022-09-26T18:35:00.705Z,92.85
2022-09-26T18:37:27.370Z,92.11
2022-09-26T18:39:56.351Z,92.26
2022-09-26T18:42:24.706Z,91.86
2022-09-26T18:45:04.235Z,92.15
2022-09-26T18:47:35.749Z,93.30
2022-09-26T18:50:02.499Z,94.35
2022-09-26T18:52:30.096Z,91.59
2022-09-26T18:55:15.448Z,90.30
2022-09-26T18:58:00.651Z,92.30
2022-09-26T19:00:27.989Z,91.37
2022-09-26T19:02:54.807Z,89.74
2022-09-26T19:05:21.540Z,89.97
2022-09-26T19:07:48.163Z,89.88
2022-09-26T19:10:20.820Z,89.29
2022-09-26T19:12:48.325Z,88.67
2022-09-26T19:15:15.817Z,88.47
2022-09-26T19:17:43.306Z,89.14
2022-09-26T19:20:10.099Z,89.02
2022-09-26T19:22:36.885Z,89.74
2022-09-26T19:25:03.900Z,89.58
2022-09-26T19:27:32.941Z,90.13
2022-09-26T19:30:04.724Z,91.35
2022-09-26T19:32:39.220Z,89.13
2022-09-26T19:35:11.954Z,87.78
2022-09-26T19:37:38.519Z,86.33
2022-09-26T19:40:16.727Z,87.50
2022-09-26T19:42:43.560Z,88.49
2022-09-26T19:45:11.366Z,87.87
2022-09-26T19:47:41.358Z,87.60
2022-09-26T19:50:15.860Z,87.56
2022-09-26T19:52:42.498Z,84.70
2022-09-26T19:55:29.029Z,84.90
2022-09-26T19:58:17.186Z,85.34
2022-09-26T20:00:44.996Z,86.43
2022-09-26T20:03:20.487Z,83.31
2022-09-26T20:05:48.536Z,85.44
2022-09-26T20:08:23.410Z,85.81
2022-09-26T20:10:54.283Z,86.71
2022-09-26T20:13:21.347Z,85.87
2022-09-26T20:15:48.493Z,85.45
2022-09-26T20:18:21.350Z,83.90
2022-09-26T20:20:52.450Z,86.77
2022-09-26T20:23:21.553Z,87.81
2022-09-26T20:25:48.493Z,86.72
2022-09-26T20:28:16.038Z,86.95
2022-09-26T20:30:51.815Z,88.79
2022-09-26T20:33:21.860Z,89.23
2022-09-26T20:35:53.907Z,88.14
2022-09-26T20:38:26.707Z,90.37
2022-09-26T20:41:03.325Z,88.51
2022-09-26T20:43:34.831Z,89.04
2022-09-26T20:46:05.864Z,88.57
2022-09-26T20:48:34.498Z,90.16
2022-09-26T20:51:02.181Z,92.50
2022-09-26T20:53:28.995Z,93.82
2022-09-26T20:55:55.704Z,95.15
2022-09-26T20:58:22.587Z,94.23
2022-09-26T21:00:49.899Z,94.15
2022-09-26T21:03:18.794Z,94.48
2022-09-26T21:05:49.267Z,95.49
2022-09-26T21:08:26.164Z,94.53
2022-09-26T21:10:54.076Z,95.10
2022-09-26T21:13:20.750Z,95.77
2022-09-26T21:15:47.674Z,95.98
2022-09-26T21:18:27.003Z,96.07
2022-09-26T21:20:53.980Z,95.00
2022-09-26T21:23:20.890Z,95.25
2022-09-26T21:25:50.601Z,95.68
2022-09-26T21:28:27.974Z,95.16
2022-09-26T21:31:03.717Z,92.51
2022-09-26T21:33:30.724Z,95.68
2022-09-26T21:35:57.761Z,94.39
2022-09-26T21:38:25.743Z,94.28
2022-09-26T21:40:54.949Z,95.63
2022-09-26T21:43:23.090Z,93.68
2022-09-26T21:45:49.793Z,95.35
2022-09-26T21:48:16.731Z,96.24
2022-09-26T21:50:57.884Z,94.77
2022-09-26T21:53:32.509Z,94.90
2022-09-26T21:56:06.593Z,94.98
2022-09-26T21:58:38.491Z,94.24
2022-09-26T22:01:07.368Z,93.80
2022-09-26T22:03:34.647Z,94.30
2022-09-26T22:06:07.584Z,95.12
2022-09-26T22:08:34.990Z,96.02
2022-09-26T22:11:03.192Z,94.88
2022-09-26T22:13:34.166Z,95.01
2022-09-26T22:16:08.722Z,93.67
2022-09-26T22:18:35.842Z,94.92
2022-09-26T22:21:04.916Z,96.12
2022-09-26T22:23:32.706Z,96.39
2022-09-26T22:25:59.546Z,95.30
2022-09-26T22:28:26.466Z,98.08
2022-09-26T22:30:54.620Z,100.00
2022-09-26T22:33:22.410Z,100.00
2022-09-26T22:35:49.569Z,100.00
2022-09-26T22:38:16.725Z,100.00
2022-09-26T22:40:44.069Z,100.00
2022-09-26T22:43:11.260Z,100.00
2022-09-26T22:45:37.852Z,100.00
2022-09-26T22:48:04.446Z,100.00
2022-09-26T22:50:31.197Z,100.00
2022-09-26T22:52:59.161Z,100.00
2022-09-26T22:55:25.817Z,100.00
2022-09-26T22:57:52.551Z,100.00
2022-09-26T23:00:19.165Z,100.00
2022-09-26T23:02:45.843Z,100.00
2022-09-26T23:05:12.616Z,100.00
2022-09-26T23:07:39.258Z,100.00
2022-09-26T23:10:06.160Z,100.00
2022-09-26T23:12:32.897Z,100.00
2022-09-26T23:14:59.472Z,100.00
2022-09-26T23:17:26.115Z,100.00
2022-09-26T23:19:52.740Z,100.00
2022-09-26T23:22:19.449Z,100.00
2022-09-26T23:24:47.151Z,100.00
2022-09-26T23:27:13.731Z,100.00
2022-09-26T23:29:41.440Z,100.00
2022-09-26T23:32:11.069Z,100.00
2022-09-26T23:34:37.645Z,100.00
2022-09-26T23:37:04.500Z,100.00
2022-09-26T23:39:31.079Z,100.00
2022-09-26T23:41:58.737Z,100.00
2022-09-26T23:44:25.351Z,100.00
2022-09-26T23:46:51.949Z,100.00
2022-09-26T23:49:18.532Z,100.00
2022-09-26T23:51:47.520Z,100.00
2022-09-26T23:54:14.208Z,100.00
2022-09-26T23:56:40.820Z,100.00
2022-09-26T23:59:07.452Z,100.00
